createdAt,value
2019-05-07T00:03:05.934Z,98262.91
2019-05-07T00:07:12.897Z,98254.95
2019-05-07T00:11:17.471Z,98256.67
2019-05-07T00:15:23.958Z,98250.56
2019-05-07T00:19:28.846Z,98254.83
2019-05-07T00:23:33.736Z,98246.92
2019-05-07T00:27:38.616Z,98249.70
2019-05-07T00:31:43.509Z,98245.88
2019-05-07T00:35:50.034Z,98251.86
2019-05-07T00:39:59.350Z,98247.09
2019-05-07T00:44:05.667Z,98236.23
2019-05-07T00:48:12.573Z,98235.02
2019-05-07T00:52:17.212Z,98233.75
2019-05-07T00:56:22.526Z,98232.00
2019-05-07T01:00:27.840Z,98229.97
2019-05-07T01:04:33.200Z,98225.77
2019-05-07T01:08:38.093Z,98220.11
2019-05-07T01:12:42.974Z,98222.23
2019-05-07T01:16:47.866Z,98217.11
2019-05-07T01:20:53.456Z,98212.79
2019-05-07T01:24:58.487Z,98206.61
2019-05-07T01:29:03.559Z,98219.63
2019-05-07T01:33:28.129Z,98209.41
2019-05-07T01:37:33.019Z,98211.11
2019-05-07T01:41:37.908Z,98208.45
2019-05-07T01:45:49.402Z,98209.88
2019-05-07T01:49:54.878Z,98209.24
2019-05-07T01:53:58.914Z,98212.42
2019-05-07T01:58:04.834Z,98209.78
2019-05-07T02:02:12.138Z,98215.23
2019-05-07T02:06:22.036Z,98213.61
2019-05-07T02:10:28.632Z,98216.45
2019-05-07T02:14:33.524Z,98225.58
2019-05-07T02:18:38.408Z,98213.19
2019-05-07T02:22:43.295Z,98212.54
2019-05-07T02:26:48.185Z,98209.05
2019-05-07T02:30:53.632Z,98213.84
2019-05-07T02:34:58.638Z,98213.84
2019-05-07T02:39:12.858Z,98216.48
2019-05-07T02:43:18.004Z,98211.47
2019-05-07T02:47:23.636Z,98220.59
2019-05-07T02:51:39.109Z,98214.20
2019-05-07T02:55:45.631Z,98212.86
2019-05-07T02:59:54.077Z,98215.88
2019-05-07T03:03:57.183Z,98217.98
2019-05-07T03:08:03.345Z,98209.78
2019-05-07T03:12:08.424Z,98218.28
2019-05-07T03:16:13.400Z,98214.05
2019-05-07T03:20:22.785Z,98214.82
2019-05-07T03:24:28.143Z,98214.50
2019-05-07T03:28:34.670Z,98209.94
2019-05-07T03:32:47.671Z,98216.59
2019-05-07T03:36:56.289Z,98215.94
2019-05-07T03:40:59.727Z,98214.41
2019-05-07T03:45:24.508Z,98220.36
2019-05-07T03:49:36.220Z,98216.36
2019-05-07T03:53:43.535Z,98214.20
2019-05-07T03:57:47.699Z,98202.58
2019-05-07T04:01:53.845Z,98203.74
2019-05-07T04:05:58.853Z,98204.95
2019-05-07T04:10:09.731Z,98205.55
2019-05-07T04:14:13.638Z,98210.82
2019-05-07T04:18:18.730Z,98213.84
2019-05-07T04:22:28.614Z,98212.92
2019-05-07T04:26:35.052Z,98215.59
2019-05-07T04:30:43.479Z,98214.67
2019-05-07T04:34:55.459Z,98216.09
2019-05-07T04:39:03.022Z,98217.75
2019-05-07T04:43:08.407Z,98212.77
2019-05-07T04:47:24.104Z,98209.63
2019-05-07T04:51:23.233Z,98213.01
2019-05-07T04:55:28.286Z,98213.42
2019-05-07T04:59:33.258Z,98216.63
2019-05-07T05:03:39.351Z,98216.11
2019-05-07T05:07:44.403Z,98223.79
2019-05-07T05:11:49.326Z,98226.48
2019-05-07T05:15:54.216Z,98231.81
2019-05-07T05:20:01.386Z,98228.06
2019-05-07T05:24:07.327Z,98226.16
2019-05-07T05:28:12.893Z,98226.56
2019-05-07T05:32:17.784Z,98229.80
2019-05-07T05:36:22.684Z,98228.90
2019-05-07T05:40:28.641Z,98237.91
2019-05-07T05:44:34.397Z,98241.34
2019-05-07T05:48:39.289Z,98238.34
2019-05-07T05:52:45.820Z,98243.69
2019-05-07T05:56:56.746Z,98236.90
2019-05-07T06:01:19.845Z,98240.68
2019-05-07T06:05:38.398Z,98233.24
2019-05-07T06:09:44.928Z,98231.30
2019-05-07T06:13:57.505Z,98227.96
2019-05-07T06:18:20.507Z,98225.09
2019-05-07T06:22:22.319Z,98219.98
2019-05-07T06:26:27.356Z,98224.81
2019-05-07T06:30:33.845Z,98219.91
2019-05-07T06:34:41.744Z,98221.73
2019-05-07T06:38:47.071Z,98224.70
2019-05-07T06:42:56.568Z,98220.45
2019-05-07T06:47:02.431Z,98223.42
2019-05-07T06:51:07.541Z,98227.53
2019-05-07T06:55:12.776Z,98225.80
2019-05-07T06:59:25.732Z,98218.36
2019-05-07T07:03:38.199Z,98226.67
2019-05-07T07:07:47.563Z,98232.48
2019-05-07T07:11:57.014Z,98229.95
2019-05-07T07:16:02.119Z,98230.76
2019-05-07T07:20:07.220Z,98223.67
2019-05-07T07:24:12.776Z,98219.78
2019-05-07T07:28:17.793Z,98217.48
2019-05-07T07:32:24.318Z,98214.91
2019-05-07T07:36:32.054Z,98212.60
2019-05-07T07:40:38.682Z,98206.41
2019-05-07T07:44:43.648Z,98211.09
2019-05-07T07:49:03.164Z,98203.72
2019-05-07T07:52:55.135Z,98206.12
2019-05-07T07:57:07.405Z,98202.90
2019-05-07T08:01:13.962Z,98203.13
2019-05-07T08:05:18.854Z,98199.56
2019-05-07T08:09:25.827Z,98194.64
2019-05-07T08:13:32.353Z,98194.14
2019-05-07T08:17:36.941Z,98202.45
2019-05-07T08:21:42.137Z,98196.14
2019-05-07T08:25:52.508Z,98196.16
2019-05-07T08:29:56.805Z,98196.23
2019-05-07T08:34:03.338Z,98191.59
2019-05-07T08:38:08.238Z,98189.25
2019-05-07T08:42:13.143Z,98185.98
2019-05-07T08:46:35.734Z,98180.05
2019-05-07T08:50:41.944Z,98183.62
2019-05-07T08:54:46.820Z,98186.66
2019-05-07T08:58:52.661Z,98187.05
2019-05-07T09:02:57.663Z,98180.48
2019-05-07T09:07:02.961Z,98178.05
2019-05-07T09:11:07.884Z,98180.03
2019-05-07T09:15:13.329Z,98178.33
2019-05-07T09:19:18.218Z,98173.58
2019-05-07T09:23:23.115Z,98167.55
2019-05-07T09:27:32.833Z,98161.39
2019-05-07T09:31:45.370Z,98172.09
2019-05-07T09:35:52.821Z,98167.88
2019-05-07T09:39:58.588Z,98159.34
2019-05-07T09:44:03.486Z,98161.64
2019-05-07T09:48:08.382Z,98152.33
2019-05-07T09:52:13.283Z,98145.58
2019-05-07T09:56:18.184Z,98146.84
2019-05-07T10:00:24.804Z,98141.73
2019-05-07T10:04:29.696Z,98149.93
2019-05-07T10:08:34.663Z,98145.12
2019-05-07T10:12:44.136Z,98143.17
2019-05-07T10:16:56.701Z,98146.25
2019-05-07T10:21:02.516Z,98144.56
2019-05-07T10:25:08.276Z,98142.97
2019-05-07T10:29:13.165Z,98140.67
2019-05-07T10:33:18.432Z,98137.59
2019-05-07T10:37:23.407Z,98129.09
2019-05-07T10:41:28.366Z,98128.47
2019-05-07T10:45:42.139Z,98127.02
2019-05-07T10:49:48.801Z,98120.16
2019-05-07T10:53:53.703Z,98115.86
2019-05-07T10:57:58.598Z,98115.04
2019-05-07T11:02:05.192Z,98112.88
2019-05-07T11:06:11.976Z,98103.28
2019-05-07T11:10:17.326Z,98102.81
2019-05-07T11:14:22.289Z,98101.73
2019-05-07T11:18:32.281Z,98091.81
2019-05-07T11:22:37.391Z,98063.77
2019-05-07T11:26:42.359Z,98063.77
2019-05-07T11:30:47.258Z,98057.98
2019-05-07T11:34:52.854Z,98068.98
2019-05-07T11:38:58.757Z,98057.19
2019-05-07T11:43:14.055Z,98072.16
2019-05-07T11:47:26.701Z,98066.07
2019-05-07T11:51:33.581Z,98065.52
2019-05-07T11:55:38.518Z,98061.06
2019-05-07T11:59:43.422Z,98058.23
2019-05-07T12:03:48.307Z,98054.80
2019-05-07T12:07:53.202Z,98055.28
2019-05-07T12:11:58.101Z,98032.97
2019-05-07T12:16:03.245Z,98032.97
2019-05-07T12:20:08.420Z,98048.70
2019-05-07T12:24:16.266Z,98038.27
2019-05-07T12:28:22.288Z,98028.41
2019-05-07T12:32:28.205Z,98027.94
2019-05-07T12:36:33.115Z,98009.36
2019-05-07T12:40:38.007Z,98009.36
2019-05-07T12:44:43.165Z,98025.05
2019-05-07T12:48:48.059Z,98020.33
2019-05-07T12:52:57.762Z,98021.30
2019-05-07T12:57:02.668Z,98013.05
2019-05-07T13:01:25.654Z,98009.63
2019-05-07T13:05:30.562Z,97999.58
2019-05-07T13:09:35.448Z,98000.11
2019-05-07T13:13:42.354Z,97995.21
2019-05-07T13:17:47.288Z,97996.91
2019-05-07T13:21:52.260Z,97992.05
2019-05-07T13:25:57.157Z,97990.41
2019-05-07T13:30:02.772Z,97977.94
2019-05-07T13:34:08.739Z,97973.31
2019-05-07T13:38:15.427Z,97982.00
2019-05-07T13:42:22.029Z,97972.81
2019-05-07T13:46:28.383Z,97967.40
2019-05-07T13:50:33.259Z,97968.20
2019-05-07T13:54:38.228Z,97965.73
2019-05-07T13:58:43.195Z,97958.52
2019-05-07T14:02:49.159Z,97960.27
2019-05-07T14:06:54.057Z,97953.13
2019-05-07T14:10:58.949Z,97953.16
2019-05-07T14:15:04.187Z,97945.25
2019-05-07T14:19:09.356Z,97940.14
2019-05-07T14:23:14.436Z,97933.78
2019-05-07T14:27:19.433Z,97935.19
2019-05-07T14:31:24.321Z,97931.36
2019-05-07T14:35:32.217Z,97934.31
2019-05-07T14:39:37.230Z,97915.84
2019-05-07T14:43:43.771Z,97917.33
2019-05-07T14:47:48.735Z,97912.73
2019-05-07T14:51:54.123Z,97915.72
2019-05-07T14:55:59.176Z,97911.31
2019-05-07T15:00:06.617Z,97912.64
2019-05-07T15:04:12.894Z,97895.26
2019-05-07T15:08:17.869Z,97895.41
2019-05-07T15:12:23.456Z,97895.23
2019-05-07T15:16:28.611Z,97888.22
2019-05-07T15:20:34.384Z,97891.46
2019-05-07T15:24:41.768Z,97886.42
2019-05-07T15:28:48.712Z,97888.68
2019-05-07T15:32:53.664Z,97886.14
2019-05-07T15:36:58.636Z,97889.84
2019-05-07T15:41:04.276Z,97884.47
2019-05-07T15:45:09.543Z,97878.34
2019-05-07T15:49:14.440Z,97882.59
2019-05-07T15:53:33.692Z,97874.86
2019-05-07T15:57:38.744Z,97865.06
2019-05-07T16:01:43.565Z,97866.59
2019-05-07T16:05:48.463Z,97856.40
2019-05-07T16:09:53.355Z,97850.39
2019-05-07T16:14:05.817Z,97850.36
2019-05-07T16:18:14.899Z,97841.84
2019-05-07T16:22:22.211Z,97835.76
2019-05-07T16:26:27.214Z,97835.97
2019-05-07T16:30:32.476Z,97835.27
2019-05-07T16:34:37.485Z,97832.97
2019-05-07T16:38:42.377Z,97826.75
2019-05-07T16:42:47.277Z,97817.23
2019-05-07T16:46:53.467Z,97814.13
2019-05-07T16:50:58.451Z,97819.67
2019-05-07T16:55:04.013Z,97809.11
2019-05-07T16:59:09.013Z,97813.59
2019-05-07T17:03:15.532Z,97813.81
2019-05-07T17:07:22.406Z,97809.44
2019-05-07T17:11:27.036Z,97791.48
2019-05-07T17:15:33.559Z,97791.48
2019-05-07T17:19:38.460Z,97813.84
2019-05-07T17:23:44.767Z,97812.98
2019-05-07T17:27:49.729Z,97808.06
2019-05-07T17:31:54.619Z,97807.41
2019-05-07T17:35:59.506Z,97801.71
2019-05-07T17:40:06.843Z,97804.05
2019-05-07T17:44:12.024Z,97800.92
2019-05-07T17:48:16.989Z,97798.04
2019-05-07T17:52:22.881Z,97798.26
2019-05-07T17:56:27.736Z,97797.81
2019-05-07T18:00:32.988Z,97801.53
2019-05-07T18:04:50.541Z,97794.80
2019-05-07T18:08:45.890Z,97796.52
2019-05-07T18:12:53.319Z,97796.92
2019-05-07T18:16:59.007Z,97786.02
2019-05-07T18:21:05.194Z,97788.36
2019-05-07T18:25:12.395Z,97779.11
2019-05-07T18:29:17.434Z,97788.09
2019-05-07T18:33:23.980Z,97782.63
2019-05-07T18:37:28.866Z,97780.65
2019-05-07T18:41:33.768Z,97778.64
2019-05-07T18:45:38.661Z,97779.52
2019-05-07T18:49:44.856Z,97781.11
2019-05-07T18:53:51.932Z,97788.27
2019-05-07T18:57:56.975Z,97791.70
2019-05-07T19:02:02.344Z,97786.94
2019-05-07T19:06:08.459Z,97792.98
2019-05-07T19:10:13.414Z,97795.02
2019-05-07T19:14:18.327Z,97787.86
2019-05-07T19:18:23.216Z,97794.26
2019-05-07T19:22:29.178Z,97791.77
2019-05-07T19:26:34.075Z,97790.47
2019-05-07T19:30:38.972Z,97788.10
2019-05-07T19:34:43.870Z,97785.33
2019-05-07T19:38:48.761Z,97788.59
2019-05-07T19:42:53.658Z,97779.45
2019-05-07T19:46:58.542Z,97788.48
2019-05-07T19:51:03.448Z,97786.86
2019-05-07T19:55:08.504Z,97788.49
2019-05-07T19:59:13.381Z,97782.36
2019-05-07T20:03:18.845Z,97786.44
2019-05-07T20:07:23.746Z,97776.16
2019-05-07T20:11:31.968Z,97774.32
2019-05-07T20:15:38.568Z,97780.13
2019-05-07T20:19:43.520Z,97779.92
2019-05-07T20:23:48.413Z,97778.22
2019-05-07T20:27:53.298Z,97769.55
2019-05-07T20:31:58.191Z,97763.33
2019-05-07T20:36:03.078Z,97759.70
2019-05-07T20:40:08.095Z,97754.78
2019-05-07T20:44:13.057Z,97747.22
2019-05-07T20:48:17.941Z,97757.13
2019-05-07T20:52:23.081Z,97755.05
2019-05-07T20:56:42.070Z,97765.67
2019-05-07T21:00:47.394Z,97758.41
2019-05-07T21:04:52.280Z,97747.98
2019-05-07T21:08:57.168Z,97744.37
2019-05-07T21:13:02.055Z,97741.04
2019-05-07T21:17:06.952Z,97733.28
2019-05-07T21:21:12.485Z,97723.11
2019-05-07T21:25:17.584Z,97720.95
2019-05-07T21:29:22.472Z,97712.88
2019-05-07T21:33:27.365Z,97704.18
2019-05-07T21:37:32.488Z,97698.25
2019-05-07T21:41:37.411Z,97696.16
2019-05-07T21:45:42.406Z,97701.64
2019-05-07T21:49:47.338Z,97692.53
2019-05-07T21:53:53.865Z,97694.66
2019-05-07T21:58:02.342Z,97695.38
2019-05-07T22:02:17.944Z,97683.18
2019-05-07T22:06:22.947Z,97682.66
2019-05-07T22:10:27.790Z,97681.47
2019-05-07T22:14:32.950Z,97678.24
2019-05-07T22:18:37.921Z,97674.20
2019-05-07T22:22:42.866Z,97672.94
2019-05-07T22:26:47.689Z,97664.52
2019-05-07T22:30:54.215Z,97657.88
2019-05-07T22:35:03.847Z,97657.88
2019-05-07T22:39:12.480Z,97645.97
2019-05-07T22:43:18.511Z,97639.23
2019-05-07T22:47:23.473Z,97643.31
2019-05-07T22:51:28.359Z,97635.34
2019-05-07T22:55:34.215Z,97638.31
2019-05-07T22:59:39.107Z,97625.72
2019-05-07T23:03:43.991Z,97610.28
2019-05-07T23:07:48.883Z,97601.28
2019-05-07T23:11:54.978Z,97602.38
2019-05-07T23:16:00.099Z,97592.77
2019-05-07T23:20:06.160Z,97584.13
2019-05-07T23:24:11.038Z,97581.69
2019-05-07T23:28:15.930Z,97579.05
2019-05-07T23:32:22.177Z,97566.81
2019-05-07T23:36:27.090Z,97566.77
2019-05-07T23:40:36.268Z,97560.58
2019-05-07T23:44:42.009Z,97567.13
2019-05-07T23:48:47.010Z,97560.25
2019-05-07T23:52:52.710Z,97561.30
2019-05-07T23:57:05.822Z,97555.58
